RAM980 GMMN-LPPT
Flight info
| Callsign | RAM980 |
|---|---|
| Flight time | 1h 3m |
| Altitude | 32000 |
| Route | LAKAM UR722 AMSEL DCT VATZI |
| Aircraft | B738/M-SDE2E3FGHIRWXY/LB1 |
Departure
| Time | 2026-05-07 16:32 |
|---|---|
| Airport | Mohammed V International Airport (GMMN) |
Arrival
| Time | 2026-05-07 17:35 |
|---|---|
| Airport | Lisbon Humberto Delgado Airport (LPPT) |
| Time | Latitude | Longitude | Altitude | Speed | Heading |
|---|---|---|---|---|---|
| 2026-05-07 15:29 | 33.37170 | -7.58186 | 649 ft | 0 kts | 64° |
| 2026-05-07 16:11 | 33.37163 | -7.58203 | 649 ft | 2 kts | 67° |
| 2026-05-07 16:12 | 33.37158 | -7.58221 | 649 ft | 2 kts | 78° |
| 2026-05-07 16:12 | 33.37155 | -7.58240 | 652 ft | 2 kts | 85° |
| 2026-05-07 16:12 | 33.37155 | -7.58260 | 652 ft | 2 kts | 99° |
| 2026-05-07 16:12 | 33.37160 | -7.58279 | 650 ft | 2 kts | 124° |
| 2026-05-07 16:13 | 33.37171 | -7.58293 | 653 ft | 2 kts | 152° |
| 2026-05-07 16:13 | 33.37177 | -7.58296 | 653 ft | 0 kts | 162° |
| 2026-05-07 16:21 | 33.37171 | -7.58294 | 653 ft | 2 kts | 162° |
| 2026-05-07 16:21 | 33.37156 | -7.58288 | 649 ft | 2 kts | 163° |
| 2026-05-07 16:21 | 33.37133 | -7.58281 | 649 ft | 6 kts | 165° |
| 2026-05-07 16:21 | 33.37086 | -7.58265 | 649 ft | 7 kts | 163° |
| 2026-05-07 16:22 | 33.37056 | -7.58254 | 649 ft | 4 kts | 163° |
| 2026-05-07 16:22 | 33.37025 | -7.58244 | 649 ft | 7 kts | 165° |
| 2026-05-07 16:22 | 33.36974 | -7.58230 | 649 ft | 6 kts | 179° |
| 2026-05-07 16:22 | 33.36943 | -7.58261 | 650 ft | 6 kts | 243° |
| 2026-05-07 16:23 | 33.36929 | -7.58311 | 649 ft | 7 kts | 252° |
| 2026-05-07 16:23 | 33.36915 | -7.58369 | 650 ft | 2 kts | 255° |
| 2026-05-07 16:23 | 33.36908 | -7.58398 | 650 ft | 6 kts | 254° |
| 2026-05-07 16:23 | 33.36889 | -7.58446 | 651 ft | 7 kts | 229° |
| 2026-05-07 16:24 | 33.36826 | -7.58453 | 650 ft | 12 kts | 165° |
| 2026-05-07 16:24 | 33.36725 | -7.58419 | 650 ft | 18 kts | 163° |
| 2026-05-07 16:24 | 33.36607 | -7.58379 | 651 ft | 18 kts | 165° |
| 2026-05-07 16:24 | 33.36492 | -7.58340 | 654 ft | 17 kts | 164° |
| 2026-05-07 16:25 | 33.36381 | -7.58302 | 652 ft | 16 kts | 164° |
| 2026-05-07 16:25 | 33.36274 | -7.58265 | 652 ft | 16 kts | 163° |
| 2026-05-07 16:25 | 33.36170 | -7.58230 | 652 ft | 16 kts | 164° |
| 2026-05-07 16:25 | 33.36029 | -7.58181 | 653 ft | 26 kts | 164° |
| 2026-05-07 16:26 | 33.35858 | -7.58123 | 654 ft | 25 kts | 164° |
| 2026-05-07 16:26 | 33.35698 | -7.58069 | 654 ft | 23 kts | 163° |
| 2026-05-07 16:26 | 33.35546 | -7.58017 | 660 ft | 22 kts | 163° |
| 2026-05-07 16:26 | 33.35449 | -7.57982 | 655 ft | 22 kts | 163° |
| 2026-05-07 16:27 | 33.35364 | -7.57953 | 658 ft | 8 kts | 165° |
| 2026-05-07 16:27 | 33.35310 | -7.57946 | 657 ft | 8 kts | 189° |
| 2026-05-07 16:27 | 33.35263 | -7.57987 | 657 ft | 10 kts | 238° |
| 2026-05-07 16:27 | 33.35238 | -7.58067 | 659 ft | 1 kts | 255° |
| 2026-05-07 16:28 | 33.35236 | -7.58075 | 658 ft | 1 kts | 255° |
| 2026-05-07 16:28 | 33.35235 | -7.58080 | 656 ft | 0 kts | 254° |
| 2026-05-07 16:29 | 33.35231 | -7.58098 | 656 ft | 6 kts | 254° |
| 2026-05-07 16:29 | 33.35211 | -7.58187 | 657 ft | 12 kts | 262° |
| 2026-05-07 16:29 | 33.35246 | -7.58269 | 658 ft | 12 kts | 332° |
| 2026-05-07 16:29 | 33.35267 | -7.58279 | 658 ft | 0 kts | 341° |
| 2026-05-07 16:31 | 33.35298 | -7.58290 | 658 ft | 19 kts | 344° |
| 2026-05-07 16:31 | 33.35653 | -7.58412 | 656 ft | 86 kts | 344° |
| 2026-05-07 16:31 | 33.36425 | -7.58673 | 654 ft | 142 kts | 345° |
| 2026-05-07 16:31 | 33.37502 | -7.59057 | 848 ft | 173 kts | 343° |
| 2026-05-07 16:32 | 33.38694 | -7.59506 | 1420 ft | 188 kts | 343° |
| 2026-05-07 16:32 | 33.39984 | -7.59975 | 2018 ft | 193 kts | 344° |
| 2026-05-07 16:32 | 33.41246 | -7.60430 | 2777 ft | 187 kts | 342° |
| 2026-05-07 16:32 | 33.42428 | -7.61175 | 3246 ft | 202 kts | 324° |
| 2026-05-07 16:33 | 33.43467 | -7.62381 | 3640 ft | 213 kts | 311° |
| 2026-05-07 16:33 | 33.44304 | -7.63837 | 4313 ft | 209 kts | 303° |
| 2026-05-07 16:33 | 33.45060 | -7.65277 | 5095 ft | 199 kts | 301° |
| 2026-05-07 16:33 | 33.45800 | -7.66656 | 5773 ft | 201 kts | 302° |
| 2026-05-07 16:34 | 33.46612 | -7.68137 | 5957 ft | 223 kts | 301° |
| 2026-05-07 16:34 | 33.47490 | -7.69734 | 6141 ft | 242 kts | 302° |
| 2026-05-07 16:34 | 33.48440 | -7.71458 | 6474 ft | 252 kts | 302° |
| 2026-05-07 16:34 | 33.49415 | -7.73227 | 6954 ft | 256 kts | 300° |
| 2026-05-07 16:35 | 33.50406 | -7.75026 | 7420 ft | 259 kts | 301° |
| 2026-05-07 16:35 | 33.51401 | -7.76832 | 7888 ft | 260 kts | 300° |
| 2026-05-07 16:35 | 33.52399 | -7.78642 | 7923 ft | 261 kts | 301° |
| 2026-05-07 16:35 | 33.53399 | -7.80460 | 8079 ft | 264 kts | 301° |
| 2026-05-07 16:36 | 33.54428 | -7.82337 | 8373 ft | 273 kts | 300° |
| 2026-05-07 16:36 | 33.55482 | -7.84258 | 8822 ft | 278 kts | 300° |
| 2026-05-07 16:36 | 33.56667 | -7.86134 | 9234 ft | 289 kts | 316° |
| 2026-05-07 16:36 | 33.58513 | -7.87189 | 9663 ft | 306 kts | 351° |
| 2026-05-07 16:37 | 33.60650 | -7.87160 | 10330 ft | 313 kts | 5° |
| 2026-05-07 16:37 | 33.62877 | -7.86746 | 10513 ft | 336 kts | 9° |
| 2026-05-07 16:37 | 33.65239 | -7.86178 | 10679 ft | 357 kts | 11° |
| 2026-05-07 16:37 | 33.67733 | -7.85552 | 10923 ft | 374 kts | 11° |
| 2026-05-07 16:38 | 33.70315 | -7.84912 | 11414 ft | 382 kts | 10° |
| 2026-05-07 16:38 | 33.72890 | -7.84290 | 12107 ft | 383 kts | 9° |
| 2026-05-07 16:38 | 33.75521 | -7.83670 | 12739 ft | 387 kts | 9° |
| 2026-05-07 16:38 | 33.78183 | -7.83053 | 13301 ft | 392 kts | 9° |
| 2026-05-07 16:39 | 33.80878 | -7.82436 | 13859 ft | 397 kts | 8° |
| 2026-05-07 16:39 | 33.83603 | -7.81816 | 14385 ft | 400 kts | 8° |
| 2026-05-07 16:39 | 33.86335 | -7.81194 | 14920 ft | 403 kts | 8° |
| 2026-05-07 16:39 | 33.89108 | -7.80564 | 15456 ft | 407 kts | 7° |
| 2026-05-07 16:40 | 33.91906 | -7.79928 | 15976 ft | 411 kts | 7° |
| 2026-05-07 16:40 | 33.94732 | -7.79284 | 16486 ft | 415 kts | 7° |
| 2026-05-07 16:40 | 33.97587 | -7.78633 | 17016 ft | 418 kts | 7° |
| 2026-05-07 16:40 | 34.00461 | -7.77977 | 17504 ft | 423 kts | 7° |
| 2026-05-07 16:41 | 34.03365 | -7.77314 | 17981 ft | 427 kts | 6° |
| 2026-05-07 16:41 | 34.06301 | -7.76643 | 18432 ft | 431 kts | 6° |
| 2026-05-07 16:41 | 34.09255 | -7.75966 | 18868 ft | 434 kts | 6° |
| 2026-05-07 16:41 | 34.12225 | -7.75286 | 19305 ft | 437 kts | 6° |
| 2026-05-07 16:42 | 34.15220 | -7.74600 | 19732 ft | 440 kts | 6° |
| 2026-05-07 16:42 | 34.18246 | -7.73963 | 20157 ft | 441 kts | 2° |
| 2026-05-07 16:42 | 34.21298 | -7.73828 | 20560 ft | 438 kts | 352° |
| 2026-05-07 16:42 | 34.24340 | -7.74049 | 21011 ft | 439 kts | 351° |
| 2026-05-07 16:43 | 34.27401 | -7.74310 | 21431 ft | 442 kts | 351° |
| 2026-05-07 16:43 | 34.30481 | -7.74572 | 21836 ft | 445 kts | 351° |
| 2026-05-07 16:43 | 34.33587 | -7.74823 | 22216 ft | 448 kts | 351° |
| 2026-05-07 16:43 | 34.36717 | -7.75061 | 22601 ft | 451 kts | 351° |
| 2026-05-07 16:44 | 34.39821 | -7.75286 | 22973 ft | 454 kts | 351° |
| 2026-05-07 16:44 | 34.42985 | -7.75509 | 23346 ft | 457 kts | 351° |
| 2026-05-07 16:44 | 34.46171 | -7.75731 | 23683 ft | 460 kts | 351° |
| 2026-05-07 16:44 | 34.49382 | -7.75955 | 24053 ft | 461 kts | 351° |
| 2026-05-07 16:45 | 34.52593 | -7.76178 | 24409 ft | 462 kts | 351° |
| 2026-05-07 16:45 | 34.55805 | -7.76403 | 24762 ft | 463 kts | 351° |
| 2026-05-07 16:45 | 34.59029 | -7.76629 | 25104 ft | 465 kts | 351° |
| 2026-05-07 16:45 | 34.62261 | -7.76857 | 25427 ft | 466 kts | 351° |
| 2026-05-07 16:46 | 34.65502 | -7.77086 | 25752 ft | 467 kts | 351° |
| 2026-05-07 16:46 | 34.68752 | -7.77315 | 26073 ft | 468 kts | 351° |
| 2026-05-07 16:46 | 34.70910 | -7.77468 | 26280 ft | 469 kts | 351° |
| 2026-05-07 16:46 | 34.74181 | -7.77699 | 26588 ft | 471 kts | 351° |
| 2026-05-07 16:47 | 34.77457 | -7.77948 | 26836 ft | 474 kts | 351° |
| 2026-05-07 16:47 | 34.80762 | -7.78221 | 27073 ft | 476 kts | 350° |
| 2026-05-07 16:47 | 34.84069 | -7.78502 | 27373 ft | 477 kts | 350° |
| 2026-05-07 16:47 | 34.87388 | -7.78784 | 27682 ft | 478 kts | 350° |
| 2026-05-07 16:48 | 34.90723 | -7.79066 | 27953 ft | 479 kts | 350° |
| 2026-05-07 16:48 | 34.94014 | -7.79343 | 28202 ft | 481 kts | 350° |
| 2026-05-07 16:48 | 34.97362 | -7.79622 | 28446 ft | 483 kts | 350° |
| 2026-05-07 16:48 | 35.00727 | -7.79903 | 28711 ft | 484 kts | 351° |
| 2026-05-07 16:49 | 35.04107 | -7.80184 | 28924 ft | 486 kts | 351° |
| 2026-05-07 16:49 | 35.07491 | -7.80465 | 29217 ft | 487 kts | 351° |
| 2026-05-07 16:49 | 35.10860 | -7.80744 | 29627 ft | 484 kts | 350° |
| 2026-05-07 16:49 | 35.14233 | -7.81023 | 30064 ft | 481 kts | 350° |
| 2026-05-07 16:50 | 35.17528 | -7.81297 | 30396 ft | 480 kts | 350° |
| 2026-05-07 16:50 | 35.20867 | -7.81576 | 30680 ft | 479 kts | 350° |
| 2026-05-07 16:50 | 35.24205 | -7.81856 | 30962 ft | 478 kts | 350° |
| 2026-05-07 16:50 | 35.27487 | -7.82131 | 31311 ft | 476 kts | 349° |
| 2026-05-07 16:51 | 35.30800 | -7.82408 | 31682 ft | 473 kts | 349° |
| 2026-05-07 16:51 | 35.34087 | -7.82684 | 31954 ft | 473 kts | 349° |
| 2026-05-07 16:51 | 35.37393 | -7.82965 | 31935 ft | 477 kts | 349° |
| 2026-05-07 16:52 | 35.43993 | -7.83524 | 31944 ft | 477 kts | 349° |
| 2026-05-07 16:52 | 35.50581 | -7.84112 | 31969 ft | 471 kts | 348° |
| 2026-05-07 16:53 | 35.57101 | -7.84706 | 31954 ft | 467 kts | 348° |
| 2026-05-07 16:53 | 35.63542 | -7.85290 | 31945 ft | 465 kts | 348° |
| 2026-05-07 16:54 | 35.69996 | -7.85875 | 31947 ft | 463 kts | 348° |
| 2026-05-07 16:54 | 35.76397 | -7.86456 | 31943 ft | 463 kts | 348° |
| 2026-05-07 16:55 | 35.82853 | -7.87042 | 31941 ft | 465 kts | 348° |
| 2026-05-07 16:55 | 35.89321 | -7.87629 | 31948 ft | 467 kts | 348° |
| 2026-05-07 16:56 | 35.95765 | -7.88484 | 31934 ft | 459 kts | 339° |
| 2026-05-07 16:56 | 36.04397 | -7.93044 | 31956 ft | 455 kts | 327° |
| 2026-05-07 16:57 | 36.10149 | -7.96503 | 31941 ft | 460 kts | 327° |
| 2026-05-07 16:57 | 36.15896 | -7.99906 | 31937 ft | 460 kts | 327° |
| 2026-05-07 16:58 | 36.21690 | -8.03315 | 31938 ft | 460 kts | 327° |
| 2026-05-07 16:58 | 36.27448 | -8.06704 | 31948 ft | 459 kts | 327° |
| 2026-05-07 16:59 | 36.33208 | -8.10103 | 31931 ft | 458 kts | 327° |
| 2026-05-07 16:59 | 36.38932 | -8.13488 | 31931 ft | 456 kts | 327° |
| 2026-05-07 17:00 | 36.44605 | -8.16840 | 31927 ft | 441 kts | 327° |
| 2026-05-07 17:00 | 36.50104 | -8.20097 | 31944 ft | 436 kts | 327° |
| 2026-05-07 17:01 | 36.55551 | -8.23342 | 31942 ft | 436 kts | 327° |
| 2026-05-07 17:01 | 36.61029 | -8.26608 | 31931 ft | 436 kts | 327° |
| 2026-05-07 17:02 | 36.66522 | -8.29883 | 31926 ft | 437 kts | 327° |
| 2026-05-07 17:02 | 36.71979 | -8.33141 | 31943 ft | 437 kts | 327° |
| 2026-05-07 17:03 | 36.77477 | -8.36430 | 31926 ft | 438 kts | 327° |
| 2026-05-07 17:03 | 36.82987 | -8.39730 | 31925 ft | 439 kts | 327° |
| 2026-05-07 17:04 | 36.88507 | -8.43042 | 31923 ft | 441 kts | 326° |
| 2026-05-07 17:04 | 36.94008 | -8.46355 | 31950 ft | 442 kts | 327° |
| 2026-05-07 17:05 | 36.99569 | -8.49700 | 31930 ft | 443 kts | 327° |
| 2026-05-07 17:05 | 37.05130 | -8.53046 | 31922 ft | 443 kts | 327° |
| 2026-05-07 17:06 | 37.10661 | -8.56384 | 31923 ft | 443 kts | 327° |
| 2026-05-07 17:06 | 37.16221 | -8.59746 | 31925 ft | 443 kts | 327° |
| 2026-05-07 17:07 | 37.21769 | -8.63114 | 31932 ft | 441 kts | 327° |
| 2026-05-07 17:07 | 37.27182 | -8.66683 | 31612 ft | 434 kts | 321° |
| 2026-05-07 17:08 | 37.29692 | -8.68703 | 31428 ft | 433 kts | 320° |
| 2026-05-07 17:08 | 37.32202 | -8.70800 | 31231 ft | 434 kts | 319° |
| 2026-05-07 17:08 | 37.34722 | -8.72934 | 31047 ft | 436 kts | 319° |
| 2026-05-07 17:08 | 37.37243 | -8.75084 | 30854 ft | 438 kts | 319° |
| 2026-05-07 17:09 | 37.39759 | -8.77244 | 30681 ft | 439 kts | 319° |
| 2026-05-07 17:09 | 37.42284 | -8.79440 | 30493 ft | 440 kts | 319° |
| 2026-05-07 17:09 | 37.44802 | -8.81649 | 30303 ft | 441 kts | 319° |
| 2026-05-07 17:09 | 37.47297 | -8.83855 | 30014 ft | 444 kts | 319° |
| 2026-05-07 17:10 | 37.49837 | -8.86125 | 29439 ft | 451 kts | 319° |
| 2026-05-07 17:10 | 37.52390 | -8.88422 | 28914 ft | 448 kts | 319° |
| 2026-05-07 17:10 | 37.54915 | -8.90702 | 28427 ft | 444 kts | 319° |
| 2026-05-07 17:10 | 37.57430 | -8.92981 | 27964 ft | 446 kts | 319° |
| 2026-05-07 17:11 | 37.59955 | -8.95280 | 27506 ft | 448 kts | 319° |
| 2026-05-07 17:11 | 37.62488 | -8.97597 | 27019 ft | 451 kts | 319° |
| 2026-05-07 17:11 | 37.65029 | -8.99933 | 26521 ft | 453 kts | 319° |
| 2026-05-07 17:11 | 37.67546 | -9.02254 | 26033 ft | 454 kts | 319° |
| 2026-05-07 17:12 | 37.70104 | -9.04620 | 25559 ft | 455 kts | 319° |
| 2026-05-07 17:12 | 37.72660 | -9.06991 | 25075 ft | 455 kts | 319° |
| 2026-05-07 17:12 | 37.75212 | -9.09360 | 24612 ft | 451 kts | 319° |
| 2026-05-07 17:12 | 37.77705 | -9.11676 | 24150 ft | 448 kts | 319° |
| 2026-05-07 17:13 | 37.80210 | -9.14001 | 23695 ft | 445 kts | 319° |
| 2026-05-07 17:13 | 37.82716 | -9.16328 | 23192 ft | 443 kts | 319° |
| 2026-05-07 17:13 | 37.85194 | -9.18632 | 22665 ft | 441 kts | 319° |
| 2026-05-07 17:13 | 37.87630 | -9.20901 | 22154 ft | 439 kts | 319° |
| 2026-05-07 17:14 | 37.90082 | -9.23193 | 21637 ft | 437 kts | 319° |
| 2026-05-07 17:14 | 37.92515 | -9.25477 | 21132 ft | 435 kts | 319° |
| 2026-05-07 17:14 | 37.94947 | -9.27771 | 20645 ft | 432 kts | 319° |
| 2026-05-07 17:14 | 37.97358 | -9.30056 | 20142 ft | 430 kts | 319° |
| 2026-05-07 17:15 | 37.99718 | -9.32305 | 19666 ft | 427 kts | 319° |
| 2026-05-07 17:15 | 38.02079 | -9.34566 | 19176 ft | 422 kts | 319° |
| 2026-05-07 17:15 | 38.04415 | -9.36813 | 18726 ft | 419 kts | 319° |
| 2026-05-07 17:15 | 38.06737 | -9.39059 | 18265 ft | 418 kts | 319° |
| 2026-05-07 17:16 | 38.09039 | -9.41300 | 17737 ft | 416 kts | 319° |
| 2026-05-07 17:16 | 38.11331 | -9.43544 | 17210 ft | 413 kts | 319° |
| 2026-05-07 17:16 | 38.13567 | -9.45747 | 16697 ft | 411 kts | 319° |
| 2026-05-07 17:16 | 38.15824 | -9.47977 | 16199 ft | 408 kts | 319° |
| 2026-05-07 17:17 | 38.18062 | -9.50188 | 15695 ft | 406 kts | 319° |
| 2026-05-07 17:17 | 38.20280 | -9.52389 | 15200 ft | 403 kts | 319° |
| 2026-05-07 17:17 | 38.22479 | -9.54587 | 14719 ft | 400 kts | 319° |
| 2026-05-07 17:17 | 38.24655 | -9.56780 | 14238 ft | 398 kts | 319° |
| 2026-05-07 17:18 | 38.26815 | -9.58977 | 13767 ft | 395 kts | 319° |
| 2026-05-07 17:18 | 38.28922 | -9.61144 | 13252 ft | 393 kts | 319° |
| 2026-05-07 17:18 | 38.31043 | -9.63339 | 12733 ft | 391 kts | 319° |
| 2026-05-07 17:18 | 38.33152 | -9.65531 | 12217 ft | 388 kts | 319° |
| 2026-05-07 17:19 | 38.35187 | -9.67650 | 11701 ft | 375 kts | 319° |
| 2026-05-07 17:19 | 38.37187 | -9.69735 | 11206 ft | 363 kts | 319° |
| 2026-05-07 17:19 | 38.39122 | -9.71754 | 10696 ft | 353 kts | 319° |
| 2026-05-07 17:19 | 38.40998 | -9.73714 | 10261 ft | 343 kts | 319° |
| 2026-05-07 17:20 | 38.42795 | -9.75590 | 9904 ft | 332 kts | 319° |
| 2026-05-07 17:20 | 38.44500 | -9.77516 | 9484 ft | 320 kts | 307° |
| 2026-05-07 17:20 | 38.45541 | -9.79922 | 9089 ft | 304 kts | 282° |
| 2026-05-07 17:20 | 38.45673 | -9.82523 | 8771 ft | 287 kts | 257° |
| 2026-05-07 17:21 | 38.44926 | -9.84804 | 8455 ft | 274 kts | 231° |
| 2026-05-07 17:21 | 38.43518 | -9.86304 | 8139 ft | 265 kts | 205° |
| 2026-05-07 17:21 | 38.41744 | -9.86765 | 7823 ft | 260 kts | 177° |
| 2026-05-07 17:21 | 38.40046 | -9.86078 | 7511 ft | 258 kts | 148° |
| 2026-05-07 17:22 | 38.38833 | -9.84427 | 7198 ft | 257 kts | 118° |
| 2026-05-07 17:22 | 38.38419 | -9.82273 | 6892 ft | 255 kts | 88° |
| 2026-05-07 17:22 | 38.38671 | -9.80057 | 6635 ft | 250 kts | 79° |
| 2026-05-07 17:22 | 38.39022 | -9.77889 | 6328 ft | 248 kts | 79° |
| 2026-05-07 17:23 | 38.39369 | -9.75769 | 6031 ft | 246 kts | 78° |
| 2026-05-07 17:23 | 38.39714 | -9.73651 | 5965 ft | 244 kts | 78° |
| 2026-05-07 17:23 | 38.40055 | -9.71534 | 5936 ft | 243 kts | 78° |
| 2026-05-07 17:23 | 38.40393 | -9.69430 | 5940 ft | 242 kts | 78° |
| 2026-05-07 17:24 | 38.40728 | -9.67337 | 5928 ft | 241 kts | 78° |
| 2026-05-07 17:24 | 38.41067 | -9.65232 | 5940 ft | 241 kts | 78° |
| 2026-05-07 17:24 | 38.41401 | -9.63155 | 5935 ft | 243 kts | 78° |
| 2026-05-07 17:24 | 38.41741 | -9.61038 | 5936 ft | 244 kts | 78° |
| 2026-05-07 17:25 | 38.42079 | -9.58917 | 5940 ft | 244 kts | 79° |
| 2026-05-07 17:25 | 38.42417 | -9.56797 | 5928 ft | 243 kts | 78° |
| 2026-05-07 17:25 | 38.42753 | -9.54691 | 5923 ft | 242 kts | 78° |
| 2026-05-07 17:25 | 38.43087 | -9.52595 | 5927 ft | 241 kts | 79° |
| 2026-05-07 17:26 | 38.43420 | -9.50505 | 5933 ft | 240 kts | 79° |
| 2026-05-07 17:26 | 38.43752 | -9.48417 | 5932 ft | 240 kts | 78° |
| 2026-05-07 17:26 | 38.44084 | -9.46324 | 5932 ft | 240 kts | 78° |
| 2026-05-07 17:26 | 38.44436 | -9.44233 | 5938 ft | 240 kts | 79° |
| 2026-05-07 17:27 | 38.44807 | -9.42171 | 5921 ft | 241 kts | 78° |
| 2026-05-07 17:27 | 38.45191 | -9.40080 | 5932 ft | 242 kts | 79° |
| 2026-05-07 17:27 | 38.45575 | -9.37990 | 5928 ft | 242 kts | 78° |
| 2026-05-07 17:27 | 38.45950 | -9.35904 | 5928 ft | 241 kts | 79° |
| 2026-05-07 17:28 | 38.46330 | -9.33816 | 5923 ft | 241 kts | 78° |
| 2026-05-07 17:28 | 38.46717 | -9.31731 | 5862 ft | 244 kts | 78° |
| 2026-05-07 17:28 | 38.47102 | -9.29602 | 5638 ft | 247 kts | 78° |
| 2026-05-07 17:28 | 38.47474 | -9.27489 | 5391 ft | 246 kts | 78° |
| 2026-05-07 17:29 | 38.48001 | -9.25424 | 5125 ft | 244 kts | 57° |
| 2026-05-07 17:29 | 38.49194 | -9.23956 | 4827 ft | 238 kts | 24° |
| 2026-05-07 17:29 | 38.50737 | -9.23321 | 4548 ft | 230 kts | 12° |
| 2026-05-07 17:29 | 38.52287 | -9.22861 | 4238 ft | 227 kts | 9° |
| 2026-05-07 17:30 | 38.53833 | -9.22713 | 4031 ft | 218 kts | 343° |
| 2026-05-07 17:30 | 38.54786 | -9.23087 | 4032 ft | 216 kts | 338° |
| 2026-05-07 17:30 | 38.56181 | -9.23681 | 3998 ft | 204 kts | 338° |
| 2026-05-07 17:30 | 38.57908 | -9.24210 | 3985 ft | 184 kts | 0° |
| 2026-05-07 17:31 | 38.59076 | -9.23652 | 4025 ft | 177 kts | 22° |
| 2026-05-07 17:31 | 38.59855 | -9.23261 | 3871 ft | 185 kts | 13° |
| 2026-05-07 17:31 | 38.61088 | -9.22716 | 3671 ft | 190 kts | 17° |
| 2026-05-07 17:31 | 38.62301 | -9.22078 | 3428 ft | 184 kts | 18° |
| 2026-05-07 17:32 | 38.63472 | -9.21447 | 3157 ft | 180 kts | 19° |
| 2026-05-07 17:32 | 38.64604 | -9.20837 | 2904 ft | 171 kts | 18° |
| 2026-05-07 17:32 | 38.65669 | -9.20264 | 2672 ft | 164 kts | 18° |
| 2026-05-07 17:32 | 38.66701 | -9.19711 | 2482 ft | 158 kts | 15° |
| 2026-05-07 17:33 | 38.67708 | -9.19172 | 2264 ft | 158 kts | 17° |
| 2026-05-07 17:33 | 38.68723 | -9.18630 | 2054 ft | 158 kts | 17° |
| 2026-05-07 17:33 | 38.69733 | -9.18089 | 1850 ft | 157 kts | 18° |
| 2026-05-07 17:33 | 38.70733 | -9.17552 | 1642 ft | 157 kts | 16° |
| 2026-05-07 17:34 | 38.71744 | -9.17010 | 1442 ft | 158 kts | 15° |
| 2026-05-07 17:34 | 38.72766 | -9.16463 | 1215 ft | 158 kts | 18° |
| 2026-05-07 17:34 | 38.73772 | -9.15927 | 1003 ft | 154 kts | 18° |
| 2026-05-07 17:34 | 38.74763 | -9.15393 | 802 ft | 154 kts | 16° |
| 2026-05-07 17:35 | 38.75759 | -9.14865 | 604 ft | 156 kts | 19° |
| 2026-05-07 17:35 | 38.76764 | -9.14319 | 374 ft | 156 kts | 17° |
| 2026-05-07 17:35 | 38.77702 | -9.13825 | 341 ft | 126 kts | 22° |
| 2026-05-07 17:35 | 38.78184 | -9.13564 | 346 ft | 20 kts | 26° |
| 2026-05-07 17:36 | 38.78292 | -9.13465 | 350 ft | 20 kts | 45° |
| 2026-05-07 17:36 | 38.78361 | -9.13366 | 345 ft | 11 kts | 53° |
| 2026-05-07 17:36 | 38.78371 | -9.13286 | 354 ft | 9 kts | 116° |
| 2026-05-07 17:36 | 38.78316 | -9.13266 | 347 ft | 9 kts | 194° |
| 2026-05-07 17:37 | 38.78258 | -9.13294 | 347 ft | 9 kts | 203° |
| 2026-05-07 17:37 | 38.78197 | -9.13326 | 353 ft | 12 kts | 202° |
| 2026-05-07 17:37 | 38.78101 | -9.13376 | 347 ft | 16 kts | 201° |
| 2026-05-07 17:37 | 38.78063 | -9.13395 | 349 ft | 6 kts | 201° |
| 2026-05-07 17:38 | 38.78023 | -9.13412 | 353 ft | 7 kts | 187° |
| 2026-05-07 17:38 | 38.77962 | -9.13399 | 346 ft | 11 kts | 168° |
| 2026-05-07 17:38 | 38.77887 | -9.13380 | 346 ft | 11 kts | 167° |
| 2026-05-07 17:38 | 38.77815 | -9.13359 | 350 ft | 10 kts | 169° |
| 2026-05-07 17:39 | 38.77747 | -9.13333 | 346 ft | 10 kts | 140° |
| 2026-05-07 17:39 | 38.77741 | -9.13249 | 352 ft | 10 kts | 79° |
| 2026-05-07 17:39 | 38.77755 | -9.13164 | 353 ft | 10 kts | 78° |
| 2026-05-07 17:39 | 38.77764 | -9.13114 | 346 ft | 0 kts | 78° |
| 2026-05-07 17:40 | 38.77765 | -9.13102 | 346 ft | 3 kts | 89° |
| 2026-05-07 17:40 | 38.77750 | -9.13080 | 353 ft | 7 kts | 155° |
| 2026-05-07 17:40 | 38.77704 | -9.13099 | 355 ft | 7 kts | 202° |
| 2026-05-07 17:40 | 38.77668 | -9.13110 | 349 ft | 0 kts | 188° |